TNCMTLPC

Guest
Details From TNCM - St Maarten - Princess Juliana Intl
To TLPC - Castries/George F L Charles
Flight Number -
Tags decoded
Created
Modified
Stats Distance 282 nm / 522 km
Max Altitude 0 ft / 0 m
Waypoints 9
Social Downloads 0
Likes 0
Share VATSIM

Download

Looking for another format? Having issues loading an existing format? Contact us
Advertisement - Login to hide

Notes

Requested: TNCM TIKAL A517 PPR A312 FOF A324 KISES TLPC

Route

TNCM TIKAL A517 PPR A312 FOF KISES TLPC

ID Type Via Altitude Latitude Longitude Leg Dist Tot Dist Heading (true) Name
O TNCM APT - 0 ft / 0 m 18.04089˚ -63.10897˚ - 0 nm - St Maarten - Princess Juliana Intl
TIKAL FIX - 0 ft / 0 m 17.47381˚ -62.81800˚ 37 nm 37 nm 154° / 154° -
SKB NDB A517 (AWY-LO) 0 ft / 0 m 17.29597˚ -62.74328˚ 11 nm 49 nm 158° / 158° BRADSHAW NDB
BIMBO FIX A517 (AWY-LO) 0 ft / 0 m 16.62667˚ -61.96028˚ 60 nm 109 nm 132° / 132° -
PPR VOR A517 (AWY-LO) 0 ft / 0 m 16.26528˚ -61.54000˚ 32 nm 142 nm 132° / 132° POINTE A PITRE VOR-DME
DOM NDB A312 (AWY-LO) 0 ft / 0 m 15.55094˚ -61.29564˚ 45 nm 187 nm 162° / 162° MELVILLE HALL NDB
FOF NDB A312 (AWY-LO) 0 ft / 0 m 14.58908˚ -61.00131˚ 60 nm 247 nm 164° / 164° MARTINIQUE NDB
KISES FIX - 0 ft / 0 m 14.18633˚ -61.00119˚ 24 nm 271 nm 180° / 180° -
O TLPC APT - 0 ft / 0 m 14.01970˚ -60.99339˚ 10 nm 281 nm 177° / 177° Castries/George F L Charles

Altitude Profile

Advertisement - Login to hide

Weather


0- 5 10 15 20 25 30 35+ Temperature / ° C

Clouds and Precipitation
Forecast for 2017-12-15 18:00 UTC. Updated an hour ago

Ground ~20,000 ft ~40,000 ft Winds

TNCM

Details ICAO TNCM (SXM)
Name St Maarten - Princess Juliana Intl
Region Caribbean Netherlands, Aruba, Curaçao, Sint Maarten
Timezone Unknown (UTC+0.0)
Stats Elevation 12 ft / 4 m (AMSL)
Location 18.040889° -63.108974°
Runways 1
Magnetic Variation 14.325° W

METAR

TNCM 151800Z 08014KT 050V110 9999 BKN021 30/21 Q1017 NOSIG RMK A3003

Decode

TAF

TAF TNCM 151720Z 1518/1618 07014G20KT P6SM VCSH SCT022 FM161000 05017KT P6SM VCSH SCT018 SCT040

Decode

Departure Runways

ID Width Length Bearing (true) Bearing (mag) Surface Threshold Offset Overrun Length
10 148 ft / 45 m 7,464 ft / 2,275 m 81.43° 95.76° Asphalt 0 ft / 0 m 151 ft / 46 m
28 148 ft / 45 m 7,464 ft / 2,275 m 261.44° 275.77° Asphalt 397 ft / 121 m 0 ft / 0 m

TLPC

Details ICAO TLPC (SLU)
Name Castries/George F L Charles
Region Saint Lucia
Timezone America/St_Lucia (UTC-4.0)
Stats Elevation 22 ft / 7 m (AMSL)
Location 14.019704° -60.993394°
Runways 1
Magnetic Variation 15.072° W

METAR

TLPC 151800Z 08009KT 9999 BKN020 28/23 Q1015 NOSIG

Decode

TAF

Not found

Destination Runways

ID Width Length Bearing (true) Bearing (mag) Surface Threshold Offset Overrun Length
09 148 ft / 45 m 5,731 ft / 1,747 m 75.34° 90.41° Asphalt 400 ft / 122 m 0 ft / 0 m
27 148 ft / 45 m 5,731 ft / 1,747 m 255.34° 270.41° Asphalt 925 ft / 282 m 0 ft / 0 m

Popular Alternatives